sensor_id;sensor_type;location;lat;lon;timestamp;pressure;altitude;pressure_sealevel;temperature;humidity
81608;BME280;71022;48.122;11.576;2023-07-20T00:01:57;95402.16;;;22.86;43.47
81608;BME280;71022;48.122;11.576;2023-07-20T00:04:42;95395.72;;;22.53;43.68
81608;BME280;71022;48.122;11.576;2023-07-20T00:07:09;95393.28;;;22.39;44.48
81608;BME280;71022;48.122;11.576;2023-07-20T00:09:36;95405.44;;;22.49;44.18
81608;BME280;71022;48.122;11.576;2023-07-20T00:12:04;95405.69;;;22.38;44.72
81608;BME280;71022;48.122;11.576;2023-07-20T00:14:32;95395.78;;;22.34;44.84
81608;BME280;71022;48.122;11.576;2023-07-20T00:16:59;95384.69;;;22.30;45.40
81608;BME280;71022;48.122;11.576;2023-07-20T00:19:27;95384.00;;;22.42;45.26
81608;BME280;71022;48.122;11.576;2023-07-20T00:21:55;95383.81;;;22.49;44.66
81608;BME280;71022;48.122;11.576;2023-07-20T00:24:22;95386.53;;;22.37;45.02
81608;BME280;71022;48.122;11.576;2023-07-20T00:26:50;95383.94;;;22.46;45.07
81608;BME280;71022;48.122;11.576;2023-07-20T00:29:17;95399.41;;;22.15;44.70
81608;BME280;71022;48.122;11.576;2023-07-20T00:31:46;95396.88;;;22.04;45.16
81608;BME280;71022;48.122;11.576;2023-07-20T00:34:15;95400.41;;;21.85;45.64
81608;BME280;71022;48.122;11.576;2023-07-20T00:36:42;95398.91;;;21.80;46.04
81608;BME280;71022;48.122;11.576;2023-07-20T00:39:09;95410.72;;;21.91;45.94
81608;BME280;71022;48.122;11.576;2023-07-20T00:41:38;95419.06;;;22.11;46.36
81608;BME280;71022;48.122;11.576;2023-07-20T00:44:05;95419.88;;;22.12;45.28
81608;BME280;71022;48.122;11.576;2023-07-20T00:46:33;95411.34;;;21.99;45.79
81608;BME280;71022;48.122;11.576;2023-07-20T00:49:01;95406.38;;;21.87;45.76
81608;BME280;71022;48.122;11.576;2023-07-20T00:51:29;95405.59;;;22.06;46.61
81608;BME280;71022;48.122;11.576;2023-07-20T00:53:57;95412.78;;;22.07;45.70
81608;BME280;71022;48.122;11.576;2023-07-20T00:56:24;95414.41;;;22.24;45.79
81608;BME280;71022;48.122;11.576;2023-07-20T00:58:52;95406.41;;;22.42;45.32
81608;BME280;71022;48.122;11.576;2023-07-20T01:01:22;95412.13;;;22.35;45.69
81608;BME280;71022;48.122;11.576;2023-07-20T01:03:49;95413.66;;;22.40;45.45
81608;BME280;71022;48.122;11.576;2023-07-20T01:06:29;95415.00;;;22.68;44.69
81608;BME280;71022;48.122;11.576;2023-07-20T01:09:18;95419.91;;;22.80;45.54
81608;BME280;71022;48.122;11.576;2023-07-20T01:12:28;95414.06;;;22.90;44.58
81608;BME280;71022;48.122;11.576;2023-07-20T01:14:54;95416.41;;;22.92;44.82
81608;BME280;71022;48.122;11.576;2023-07-20T01:17:21;95406.09;;;22.89;44.52
81608;BME280;71022;48.122;11.576;2023-07-20T01:19:48;95402.25;;;22.99;45.08
81608;BME280;71022;48.122;11.576;2023-07-20T01:33:13;95399.56;;;23.56;43.31
81608;BME280;71022;48.122;11.576;2023-07-20T01:35:43;95403.09;;;23.44;43.20
81608;BME280;71022;48.122;11.576;2023-07-20T01:38:13;95410.72;;;23.44;43.41
81608;BME280;71022;48.122;11.576;2023-07-20T01:40:41;95402.22;;;23.15;44.11
81608;BME280;71022;48.122;11.576;2023-07-20T01:43:08;95409.94;;;22.95;44.72
81608;BME280;71022;48.122;11.576;2023-07-20T01:45:35;95411.88;;;23.14;44.62
81608;BME280;71022;48.122;11.576;2023-07-20T01:48:03;95414.50;;;23.05;44.38
81608;BME280;71022;48.122;11.576;2023-07-20T01:50:31;95410.81;;;22.92;45.01
81608;BME280;71022;48.122;11.576;2023-07-20T01:52:58;95411.00;;;22.69;45.69
81608;BME280;71022;48.122;11.576;2023-07-20T01:55:26;95414.31;;;22.80;44.83
81608;BME280;71022;48.122;11.576;2023-07-20T01:57:55;95406.28;;;22.98;44.31
81608;BME280;71022;48.122;11.576;2023-07-20T02:00:22;95407.31;;;23.04;43.99
81608;BME280;71022;48.122;11.576;2023-07-20T02:02:52;95414.69;;;22.82;44.52
81608;BME280;71022;48.122;11.576;2023-07-20T02:05:19;95408.53;;;22.71;45.00
81608;BME280;71022;48.122;11.576;2023-07-20T02:07:48;95413.44;;;22.83;45.06
81608;BME280;71022;48.122;11.576;2023-07-20T02:10:19;95412.41;;;22.93;45.27
81608;BME280;71022;48.122;11.576;2023-07-20T02:12:47;95423.63;;;22.93;44.52
81608;BME280;71022;48.122;11.576;2023-07-20T02:15:15;95408.19;;;23.01;44.81
81608;BME280;71022;48.122;11.576;2023-07-20T02:17:43;95416.94;;;23.03;43.97
81608;BME280;71022;48.122;11.576;2023-07-20T02:20:11;95417.22;;;22.92;44.72
81608;BME280;71022;48.122;11.576;2023-07-20T02:22:39;95409.44;;;22.84;44.65
81608;BME280;71022;48.122;11.576;2023-07-20T02:25:07;95414.69;;;22.82;45.35
81608;BME280;71022;48.122;11.576;2023-07-20T02:27:35;95422.38;;;22.94;44.61
81608;BME280;71022;48.122;11.576;2023-07-20T02:30:03;95439.34;;;23.03;44.12
81608;BME280;71022;48.122;11.576;2023-07-20T02:32:33;95419.56;;;22.94;43.60
81608;BME280;71022;48.122;11.576;2023-07-20T02:35:01;95408.19;;;22.69;45.09
81608;BME280;71022;48.122;11.576;2023-07-20T02:37:31;95417.00;;;22.67;43.97
81608;BME280;71022;48.122;11.576;2023-07-20T02:39:58;95414.09;;;22.54;44.16
81608;BME280;71022;48.122;11.576;2023-07-20T02:42:26;95406.69;;;22.28;45.71
81608;BME280;71022;48.122;11.576;2023-07-20T02:44:55;95413.34;;;22.18;46.58
81608;BME280;71022;48.122;11.576;2023-07-20T02:47:22;95414.00;;;22.06;45.55
81608;BME280;71022;48.122;11.576;2023-07-20T02:49:49;95417.41;;;22.14;46.30
81608;BME280;71022;48.122;11.576;2023-07-20T02:52:17;95421.78;;;22.50;45.02
81608;BME280;71022;48.122;11.576;2023-07-20T02:54:47;95440.84;;;22.39;44.11
81608;BME280;71022;48.122;11.576;2023-07-20T02:57:14;95447.44;;;22.29;45.08
81608;BME280;71022;48.122;11.576;2023-07-20T02:59:42;95457.03;;;22.12;45.92
81608;BME280;71022;48.122;11.576;2023-07-20T03:02:09;95448.31;;;22.26;46.94
81608;BME280;71022;48.122;11.576;2023-07-20T03:04:37;95451.31;;;22.35;47.21
81608;BME280;71022;48.122;11.576;2023-07-20T03:07:05;95448.28;;;22.10;49.50
81608;BME280;71022;48.122;11.576;2023-07-20T03:09:32;95447.13;;;21.88;49.79
81608;BME280;71022;48.122;11.576;2023-07-20T03:11:59;95444.25;;;21.91;50.20
81608;BME280;71022;48.122;11.576;2023-07-20T03:14:28;95451.56;;;22.25;49.47
81608;BME280;71022;48.122;11.576;2023-07-20T03:16:56;95451.63;;;22.21;49.26
81608;BME280;71022;48.122;11.576;2023-07-20T03:19:23;95455.69;;;22.36;49.55
81608;BME280;71022;48.122;11.576;2023-07-20T03:21:53;95453.78;;;22.33;49.99
81608;BME280;71022;48.122;11.576;2023-07-20T03:24:20;95458.94;;;22.15;49.81
81608;BME280;71022;48.122;11.576;2023-07-20T03:26:48;95464.97;;;21.74;50.88
81608;BME280;71022;48.122;11.576;2023-07-20T03:29:15;95468.31;;;21.42;51.85
81608;BME280;71022;48.122;11.576;2023-07-20T03:31:44;95483.06;;;21.23;52.49
81608;BME280;71022;48.122;11.576;2023-07-20T03:34:11;95479.75;;;21.28;52.84
81608;BME280;71022;48.122;11.576;2023-07-20T03:36:42;95470.19;;;21.29;53.21
81608;BME280;71022;48.122;11.576;2023-07-20T03:39:11;95476.16;;;21.05;55.38
81608;BME280;71022;48.122;11.576;2023-07-20T03:41:38;95478.06;;;20.84;55.61
81608;BME280;71022;48.122;11.576;2023-07-20T03:44:06;95471.75;;;21.04;55.48
81608;BME280;71022;48.122;11.576;2023-07-20T03:46:33;95475.56;;;21.17;54.58
81608;BME280;71022;48.122;11.576;2023-07-20T03:49:01;95476.53;;;21.30;54.58
81608;BME280;71022;48.122;11.576;2023-07-20T03:51:28;95476.94;;;21.51;53.76
81608;BME280;71022;48.122;11.576;2023-07-20T03:53:58;95476.84;;;21.78;52.67
81608;BME280;71022;48.122;11.576;2023-07-20T03:56:25;95480.56;;;21.72;53.12
81608;BME280;71022;48.122;11.576;2023-07-20T03:58:53;95472.72;;;21.43;53.38
81608;BME280;71022;48.122;11.576;2023-07-20T04:01:21;95482.38;;;21.16;54.63
81608;BME280;71022;48.122;11.576;2023-07-20T04:03:48;95488.97;;;21.02;54.86
81608;BME280;71022;48.122;11.576;2023-07-20T04:06:16;95481.63;;;20.85;55.31
81608;BME280;71022;48.122;11.576;2023-07-20T04:08:44;95489.50;;;20.93;54.75
81608;BME280;71022;48.122;11.576;2023-07-20T04:11:14;95486.25;;;21.22;54.02
81608;BME280;71022;48.122;11.576;2023-07-20T04:13:41;95482.31;;;21.19;54.28
81608;BME280;71022;48.122;11.576;2023-07-20T04:16:08;95481.72;;;21.08;54.47
81608;BME280;71022;48.122;11.576;2023-07-20T04:18:36;95479.88;;;21.21;54.27
81608;BME280;71022;48.122;11.576;2023-07-20T04:21:03;95482.31;;;21.42;53.67
81608;BME280;71022;48.122;11.576;2023-07-20T04:23:31;95487.00;;;21.69;52.73
81608;BME280;71022;48.122;11.576;2023-07-20T04:25:58;95484.59;;;21.71;52.70
81608;BME280;71022;48.122;11.576;2023-07-20T04:28:26;95487.00;;;21.69;52.75
81608;BME280;71022;48.122;11.576;2023-07-20T04:30:53;95487.53;;;21.83;52.47
81608;BME280;71022;48.122;11.576;2023-07-20T04:33:22;95489.34;;;21.93;52.03
81608;BME280;71022;48.122;11.576;2023-07-20T04:35:54;95494.44;;;21.98;51.93
81608;BME280;71022;48.122;11.576;2023-07-20T04:38:28;95489.66;;;21.99;51.36
81608;BME280;71022;48.122;11.576;2023-07-20T04:41:03;95497.09;;;21.86;51.75
81608;BME280;71022;48.122;11.576;2023-07-20T04:43:35;95490.25;;;21.87;51.67
81608;BME280;71022;48.122;11.576;2023-07-20T04:46:02;95501.59;;;21.80;51.65
81608;BME280;71022;48.122;11.576;2023-07-20T04:48:32;95504.22;;;21.87;51.34
81608;BME280;71022;48.122;11.576;2023-07-20T04:50:59;95495.56;;;21.81;50.91
81608;BME280;71022;48.122;11.576;2023-07-20T04:53:27;95503.88;;;21.85;51.05
81608;BME280;71022;48.122;11.576;2023-07-20T04:55:55;95493.44;;;21.66;51.36
81608;BME280;71022;48.122;11.576;2023-07-20T04:58:24;95500.50;;;21.74;50.92
81608;BME280;71022;48.122;11.576;2023-07-20T05:00:53;95496.97;;;21.70;50.51
81608;BME280;71022;48.122;11.576;2023-07-20T05:03:21;95501.00;;;21.45;51.00
81608;BME280;71022;48.122;11.576;2023-07-20T05:05:49;95510.00;;;21.33;51.15
81608;BME280;71022;48.122;11.576;2023-07-20T05:08:17;95509.59;;;21.35;50.76
81608;BME280;71022;48.122;11.576;2023-07-20T05:10:47;95503.69;;;21.29;51.27
81608;BME280;71022;48.122;11.576;2023-07-20T05:13:17;95509.41;;;21.22;50.58
81608;BME280;71022;48.122;11.576;2023-07-20T05:15:44;95506.13;;;21.01;50.79
81608;BME280;71022;48.122;11.576;2023-07-20T05:18:14;95500.75;;;20.86;51.04
81608;BME280;71022;48.122;11.576;2023-07-20T05:20:47;95506.94;;;20.74;51.38
81608;BME280;71022;48.122;11.576;2023-07-20T05:23:18;95516.22;;;20.91;51.46
81608;BME280;71022;48.122;11.576;2023-07-20T05:25:56;95502.00;;;20.82;50.44
81608;BME280;71022;48.122;11.576;2023-07-20T05:28:24;95505.91;;;20.88;48.12
81608;BME280;71022;48.122;11.576;2023-07-20T05:30:51;95506.66;;;20.92;50.13
81608;BME280;71022;48.122;11.576;2023-07-20T05:33:20;95502.47;;;21.04;49.07
81608;BME280;71022;48.122;11.576;2023-07-20T05:35:47;95504.88;;;21.05;48.87
81608;BME280;71022;48.122;11.576;2023-07-20T05:38:15;95511.19;;;21.09;48.70
81608;BME280;71022;48.122;11.576;2023-07-20T05:40:44;95501.56;;;21.37;48.03
81608;BME280;71022;48.122;11.576;2023-07-20T05:43:11;95508.66;;;21.65;47.68
81608;BME280;71022;48.122;11.576;2023-07-20T05:45:42;95511.16;;;21.59;45.79
81608;BME280;71022;48.122;11.576;2023-07-20T05:48:10;95514.97;;;21.22;46.50
81608;BME280;71022;48.122;11.576;2023-07-20T05:50:42;95513.59;;;21.11;46.45
81608;BME280;71022;48.122;11.576;2023-07-20T05:53:10;95517.53;;;21.13;46.93
81608;BME280;71022;48.122;11.576;2023-07-20T05:55:37;95508.88;;;21.04;47.13
81608;BME280;71022;48.122;11.576;2023-07-20T05:58:06;95512.00;;;21.06;47.55
81608;BME280;71022;48.122;11.576;2023-07-20T06:00:33;95518.53;;;21.00;46.94
81608;BME280;71022;48.122;11.576;2023-07-20T06:03:00;95522.25;;;21.16;46.57
81608;BME280;71022;48.122;11.576;2023-07-20T06:05:29;95519.13;;;21.37;45.70
81608;BME280;71022;48.122;11.576;2023-07-20T06:07:56;95521.50;;;21.62;45.78
81608;BME280;71022;48.122;11.576;2023-07-20T06:10:25;95528.09;;;21.48;45.19
81608;BME280;71022;48.122;11.576;2023-07-20T06:12:53;95527.09;;;21.12;45.88
81608;BME280;71022;48.122;11.576;2023-07-20T06:15:26;95524.56;;;21.21;45.26
81608;BME280;71022;48.122;11.576;2023-07-20T06:17:55;95524.69;;;21.14;45.87
81608;BME280;71022;48.122;11.576;2023-07-20T06:20:25;95518.44;;;21.30;45.66
81608;BME280;71022;48.122;11.576;2023-07-20T06:22:53;95518.47;;;21.53;43.80
81608;BME280;71022;48.122;11.576;2023-07-20T06:25:20;95521.41;;;21.66;44.55
81608;BME280;71022;48.122;11.576;2023-07-20T06:27:49;95528.09;;;21.72;42.70
81608;BME280;71022;48.122;11.576;2023-07-20T06:30:18;95524.91;;;21.50;44.48
81608;BME280;71022;48.122;11.576;2023-07-20T06:32:45;95528.00;;;21.56;43.28
81608;BME280;71022;48.122;11.576;2023-07-20T06:35:13;95525.91;;;21.36;42.84
81608;BME280;71022;48.122;11.576;2023-07-20T06:37:41;95525.53;;;21.11;43.38
81608;BME280;71022;48.122;11.576;2023-07-20T06:40:09;95516.97;;;20.68;44.30
81608;BME280;71022;48.122;11.576;2023-07-20T06:42:39;95527.88;;;20.59;44.92
81608;BME280;71022;48.122;11.576;2023-07-20T06:45:09;95514.72;;;20.60;45.60
81608;BME280;71022;48.122;11.576;2023-07-20T06:47:40;95520.34;;;20.83;45.75
81608;BME280;71022;48.122;11.576;2023-07-20T06:50:09;95516.22;;;20.91;44.63
81608;BME280;71022;48.122;11.576;2023-07-20T06:52:36;95513.31;;;20.75;45.04
81608;BME280;71022;48.122;11.576;2023-07-20T06:55:04;95519.25;;;20.77;45.56
81608;BME280;71022;48.122;11.576;2023-07-20T06:57:32;95519.19;;;20.80;44.76
81608;BME280;71022;48.122;11.576;2023-07-20T06:59:59;95532.59;;;21.66;43.59
81608;BME280;71022;48.122;11.576;2023-07-20T07:02:27;95524.56;;;21.68;43.06
81608;BME280;71022;48.122;11.576;2023-07-20T07:04:54;95524.91;;;21.50;43.41
81608;BME280;71022;48.122;11.576;2023-07-20T07:07:26;95521.97;;;21.34;44.29
81608;BME280;71022;48.122;11.576;2023-07-20T07:09:54;95515.84;;;21.19;43.76
81608;BME280;71022;48.122;11.576;2023-07-20T07:12:21;95517.31;;;21.93;41.73
81608;BME280;71022;48.122;11.576;2023-07-20T07:14:48;95517.09;;;21.61;43.00
81608;BME280;71022;48.122;11.576;2023-07-20T07:17:15;95532.06;;;22.37;41.35
81608;BME280;71022;48.122;11.576;2023-07-20T07:19:49;95520.75;;;22.40;41.22
81608;BME280;71022;48.122;11.576;2023-07-20T07:22:16;95529.19;;;22.01;41.78
81608;BME280;71022;48.122;11.576;2023-07-20T07:24:43;95526.34;;;22.40;41.78
81608;BME280;71022;48.122;11.576;2023-07-20T07:27:11;95528.00;;;23.45;40.01
81608;BME280;71022;48.122;11.576;2023-07-20T07:29:38;95519.13;;;23.79;38.58
81608;BME280;71022;48.122;11.576;2023-07-20T07:32:06;95524.22;;;23.68;36.45
81608;BME280;71022;48.122;11.576;2023-07-20T07:34:33;95525.00;;;23.20;39.14
81608;BME280;71022;48.122;11.576;2023-07-20T07:37:02;95534.41;;;22.38;38.89
81608;BME280;71022;48.122;11.576;2023-07-20T07:39:29;95535.00;;;22.10;41.35
81608;BME280;71022;48.122;11.576;2023-07-20T07:42:00;95533.53;;;22.02;40.06
81608;BME280;71022;48.122;11.576;2023-07-20T07:44:27;95525.91;;;21.83;40.09
81608;BME280;71022;48.122;11.576;2023-07-20T07:46:54;95531.69;;;21.49;40.11
81608;BME280;71022;48.122;11.576;2023-07-20T07:49:22;95523.63;;;21.31;40.11
81608;BME280;71022;48.122;11.576;2023-07-20T07:51:49;95527.38;;;21.44;40.17
81608;BME280;71022;48.122;11.576;2023-07-20T07:54:16;95527.31;;;21.71;40.67
81608;BME280;71022;48.122;11.576;2023-07-20T07:56:43;95537.41;;;21.88;41.39
81608;BME280;71022;48.122;11.576;2023-07-20T07:59:11;95533.03;;;21.84;40.08
81608;BME280;71022;48.122;11.576;2023-07-20T08:01:38;95528.94;;;21.69;40.57
81608;BME280;71022;48.122;11.576;2023-07-20T08:04:06;95531.16;;;21.34;41.29
81608;BME280;71022;48.122;11.576;2023-07-20T08:06:33;95526.81;;;21.30;41.46
81608;BME280;71022;48.122;11.576;2023-07-20T08:09:00;95530.16;;;21.68;41.22
81608;BME280;71022;48.122;11.576;2023-07-20T08:11:29;95532.97;;;21.91;41.14
81608;BME280;71022;48.122;11.576;2023-07-20T08:13:57;95534.38;;;21.99;40.53
81608;BME280;71022;48.122;11.576;2023-07-20T08:16:25;95539.75;;;21.90;40.25
81608;BME280;71022;48.122;11.576;2023-07-20T08:18:53;95533.44;;;21.63;40.62
81608;BME280;71022;48.122;11.576;2023-07-20T08:21:20;95536.78;;;22.00;40.63
81608;BME280;71022;48.122;11.576;2023-07-20T08:23:47;95534.97;;;22.49;39.88
81608;BME280;71022;48.122;11.576;2023-07-20T08:26:15;95533.38;;;22.88;39.76
81608;BME280;71022;48.122;11.576;2023-07-20T08:28:44;95541.88;;;23.00;39.23
81608;BME280;71022;48.122;11.576;2023-07-20T08:31:11;95540.31;;;23.15;38.65
81608;BME280;71022;48.122;11.576;2023-07-20T08:33:39;95542.09;;;23.26;39.05
81608;BME280;71022;48.122;11.576;2023-07-20T08:36:06;95544.69;;;23.17;37.99
81608;BME280;71022;48.122;11.576;2023-07-20T08:38:38;95535.88;;;23.34;37.90
81608;BME280;71022;48.122;11.576;2023-07-20T08:41:05;95539.00;;;23.85;37.65
81608;BME280;71022;48.122;11.576;2023-07-20T08:43:33;95527.94;;;23.94;36.54
81608;BME280;71022;48.122;11.576;2023-07-20T08:46:02;95535.38;;;24.00;36.03
81608;BME280;71022;48.122;11.576;2023-07-20T08:48:31;95537.09;;;23.65;37.75
81608;BME280;71022;48.122;11.576;2023-07-20T08:50:58;95541.47;;;23.66;37.89
81608;BME280;71022;48.122;11.576;2023-07-20T08:53:27;95538.22;;;23.84;38.54
81608;BME280;71022;48.122;11.576;2023-07-20T08:55:55;95537.94;;;23.95;37.59
81608;BME280;71022;48.122;11.576;2023-07-20T08:58:23;95535.81;;;23.99;38.42
81608;BME280;71022;48.122;11.576;2023-07-20T09:00:53;95535.50;;;23.81;37.91
81608;BME280;71022;48.122;11.576;2023-07-20T09:03:21;95532.00;;;23.77;38.48
81608;BME280;71022;48.122;11.576;2023-07-20T09:05:48;95531.47;;;23.82;38.27
81608;BME280;71022;48.122;11.576;2023-07-20T09:08:15;95527.75;;;24.01;38.51
81608;BME280;71022;48.122;11.576;2023-07-20T09:10:43;95529.25;;;24.75;36.23
81608;BME280;71022;48.122;11.576;2023-07-20T09:13:14;95526.84;;;25.03;35.05
81608;BME280;71022;48.122;11.576;2023-07-20T09:15:47;95526.03;;;25.02;34.96
81608;BME280;71022;48.122;11.576;2023-07-20T09:18:27;95519.72;;;25.36;35.78
81608;BME280;71022;48.122;11.576;2023-07-20T09:21:02;95517.84;;;25.08;35.92
81608;BME280;71022;48.122;11.576;2023-07-20T09:23:37;95518.50;;;25.12;36.46
81608;BME280;71022;48.122;11.576;2023-07-20T09:26:13;95514.47;;;24.59;35.95
81608;BME280;71022;48.122;11.576;2023-07-20T09:28:43;95513.63;;;24.74;37.34
81608;BME280;71022;48.122;11.576;2023-07-20T09:31:18;95508.56;;;24.69;35.18
81608;BME280;71022;48.122;11.576;2023-07-20T09:33:47;95507.72;;;24.44;35.83
81608;BME280;71022;48.122;11.576;2023-07-20T09:36:17;95514.31;;;24.37;36.38
81608;BME280;71022;48.122;11.576;2023-07-20T09:39:04;95507.31;;;24.58;36.28
81608;BME280;71022;48.122;11.576;2023-07-20T09:41:41;95512.09;;;25.11;35.35
81608;BME280;71022;48.122;11.576;2023-07-20T09:44:16;95516.22;;;25.57;33.25
81608;BME280;71022;48.122;11.576;2023-07-20T09:46:48;95508.44;;;24.73;34.67
81608;BME280;71022;48.122;11.576;2023-07-20T09:49:18;95499.19;;;23.90;36.00
81608;BME280;71022;48.122;11.576;2023-07-20T09:51:49;95503.50;;;24.23;35.39
81608;BME280;71022;48.122;11.576;2023-07-20T09:54:17;95492.63;;;24.25;36.88
81608;BME280;71022;48.122;11.576;2023-07-20T09:56:47;95504.38;;;24.20;36.91
81608;BME280;71022;48.122;11.576;2023-07-20T09:59:15;95501.34;;;24.14;36.57
81608;BME280;71022;48.122;11.576;2023-07-20T10:01:43;95508.13;;;24.30;35.71
81608;BME280;71022;48.122;11.576;2023-07-20T10:04:12;95496.06;;;23.72;36.50
81608;BME280;71022;48.122;11.576;2023-07-20T10:06:42;95504.94;;;23.22;37.11
81608;BME280;71022;48.122;11.576;2023-07-20T10:09:10;95507.56;;;22.96;37.90
81608;BME280;71022;48.122;11.576;2023-07-20T10:11:50;95514.84;;;23.26;38.43
81608;BME280;71022;48.122;11.576;2023-07-20T10:14:41;95508.03;;;23.43;37.70
81608;BME280;71022;48.122;11.576;2023-07-20T10:17:14;95497.59;;;23.11;38.18
81608;BME280;71022;48.122;11.576;2023-07-20T10:19:47;95508.25;;;23.00;37.97
81608;BME280;71022;48.122;11.576;2023-07-20T10:22:22;95497.84;;;23.33;38.75
81608;BME280;71022;48.122;11.576;2023-07-20T10:24:52;95512.13;;;23.39;38.45
81608;BME280;71022;48.122;11.576;2023-07-20T10:27:21;95508.34;;;23.13;37.93
81608;BME280;71022;48.122;11.576;2023-07-20T10:29:48;95508.84;;;22.76;38.62
81608;BME280;71022;48.122;11.576;2023-07-20T10:32:16;95506.84;;;22.56;39.69
81608;BME280;71022;48.122;11.576;2023-07-20T10:34:50;95502.03;;;22.57;40.45
81608;BME280;71022;48.122;11.576;2023-07-20T10:43:06;95491.19;;;23.11;39.29
81608;BME280;71022;48.122;11.576;2023-07-20T10:45:51;95485.94;;;23.45;38.38
81608;BME280;71022;48.122;11.576;2023-07-20T10:48:21;95486.03;;;23.26;38.29
81608;BME280;71022;48.122;11.576;2023-07-20T10:51:28;95482.25;;;23.48;38.77
81608;BME280;71022;48.122;11.576;2023-07-20T10:53:56;95483.81;;;23.65;37.77
81608;BME280;71022;48.122;11.576;2023-07-20T10:56:26;95483.28;;;23.71;38.08
81608;BME280;71022;48.122;11.576;2023-07-20T10:58:58;95481.47;;;23.93;37.99
81608;BME280;71022;48.122;11.576;2023-07-20T11:01:30;95482.16;;;24.13;36.24
81608;BME280;71022;48.122;11.576;2023-07-20T11:03:59;95479.50;;;24.06;36.31
81608;BME280;71022;48.122;11.576;2023-07-20T11:06:31;95474.53;;;23.97;36.47
81608;BME280;71022;48.122;11.576;2023-07-20T11:09:13;95469.91;;;23.91;38.28
81608;BME280;71022;48.122;11.576;2023-07-20T11:11:48;95477.69;;;23.71;37.59
81608;BME280;71022;48.122;11.576;2023-07-20T11:14:23;95474.75;;;23.29;37.67
81608;BME280;71022;48.122;11.576;2023-07-20T11:16:52;95470.09;;;23.06;37.83
81608;BME280;71022;48.122;11.576;2023-07-20T11:19:24;95470.63;;;23.01;38.66
81608;BME280;71022;48.122;11.576;2023-07-20T11:21:56;95460.56;;;22.88;38.67
81608;BME280;71022;48.122;11.576;2023-07-20T11:24:30;95469.09;;;22.97;38.65
81608;BME280;71022;48.122;11.576;2023-07-20T11:26:57;95463.88;;;23.15;38.23
81608;BME280;71022;48.122;11.576;2023-07-20T11:29:26;95475.19;;;23.11;38.28
81608;BME280;71022;48.122;11.576;2023-07-20T11:31:57;95465.72;;;23.05;37.39
81608;BME280;71022;48.122;11.576;2023-07-20T11:34:25;95465.44;;;23.16;37.77
81608;BME280;71022;48.122;11.576;2023-07-20T11:36:54;95455.19;;;23.42;37.01
81608;BME280;71022;48.122;11.576;2023-07-20T11:39:25;95463.88;;;23.31;37.37
81608;BME280;71022;48.122;11.576;2023-07-20T11:41:55;95454.25;;;23.32;36.80
81608;BME280;71022;48.122;11.576;2023-07-20T11:44:24;95456.16;;;23.51;37.05
81608;BME280;71022;48.122;11.576;2023-07-20T11:47:07;95447.66;;;23.84;36.88
81608;BME280;71022;48.122;11.576;2023-07-20T11:49:37;95450.66;;;24.34;36.03
81608;BME280;71022;48.122;11.576;2023-07-20T11:52:10;95445.38;;;24.36;35.24
81608;BME280;71022;48.122;11.576;2023-07-20T11:54:39;95444.56;;;24.23;35.03
81608;BME280;71022;48.122;11.576;2023-07-20T11:57:15;95438.16;;;24.22;34.43
81608;BME280;71022;48.122;11.576;2023-07-20T11:59:56;95427.94;;;24.16;35.41
81608;BME280;71022;48.122;11.576;2023-07-20T12:02:27;95431.72;;;24.09;36.05
81608;BME280;71022;48.122;11.576;2023-07-20T12:04:55;95422.97;;;23.79;36.60
81608;BME280;71022;48.122;11.576;2023-07-20T12:07:22;95421.94;;;23.73;35.51
81608;BME280;71022;48.122;11.576;2023-07-20T12:10:10;95417.16;;;23.86;35.65
81608;BME280;71022;48.122;11.576;2023-07-20T12:12:38;95423.59;;;23.70;36.95
81608;BME280;71022;48.122;11.576;2023-07-20T12:15:25;95417.34;;;23.79;37.22
81608;BME280;71022;48.122;11.576;2023-07-20T12:17:55;95412.78;;;23.85;36.90
81608;BME280;71022;48.122;11.576;2023-07-20T12:23:00;95416.31;;;24.43;35.61
81608;BME280;71022;48.122;11.576;2023-07-20T12:25:38;95412.47;;;24.24;35.47
81608;BME280;71022;48.122;11.576;2023-07-20T12:28:17;95410.06;;;24.10;35.68
81608;BME280;71022;48.122;11.576;2023-07-20T12:30:45;95405.13;;;24.14;35.57
81608;BME280;71022;48.122;11.576;2023-07-20T12:33:13;95403.84;;;24.02;35.71
81608;BME280;71022;48.122;11.576;2023-07-20T12:35:44;95399.34;;;23.92;36.30
81608;BME280;71022;48.122;11.576;2023-07-20T12:38:11;95392.06;;;24.07;35.95
81608;BME280;71022;48.122;11.576;2023-07-20T12:40:39;95387.59;;;24.10;35.56
81608;BME280;71022;48.122;11.576;2023-07-20T12:43:07;95395.50;;;24.40;34.90
81608;BME280;71022;48.122;11.576;2023-07-20T12:45:34;95384.97;;;24.44;34.70
81608;BME280;71022;48.122;11.576;2023-07-20T12:48:02;95377.09;;;24.64;35.34
81608;BME280;71022;48.122;11.576;2023-07-20T12:50:29;95379.25;;;24.60;35.72
81608;BME280;71022;48.122;11.576;2023-07-20T12:52:57;95379.81;;;24.43;35.46
81608;BME280;71022;48.122;11.576;2023-07-20T12:55:24;95377.28;;;24.07;35.75
81608;BME280;71022;48.122;11.576;2023-07-20T12:57:51;95384.16;;;23.90;36.53
81608;BME280;71022;48.122;11.576;2023-07-20T13:00:19;95381.59;;;24.24;36.21
81608;BME280;71022;48.122;11.576;2023-07-20T13:02:46;95371.94;;;24.50;36.21
81608;BME280;71022;48.122;11.576;2023-07-20T13:05:15;95372.84;;;24.72;34.77
81608;BME280;71022;48.122;11.576;2023-07-20T13:07:43;95371.94;;;24.75;34.77
81608;BME280;71022;48.122;11.576;2023-07-20T13:10:13;95365.19;;;24.86;34.82
81608;BME280;71022;48.122;11.576;2023-07-20T13:12:41;95366.75;;;24.61;34.72
81608;BME280;71022;48.122;11.576;2023-07-20T13:15:10;95360.91;;;24.68;34.39
81608;BME280;71022;48.122;11.576;2023-07-20T13:17:38;95356.31;;;24.74;33.99
81608;BME280;71022;48.122;11.576;2023-07-20T13:20:08;95358.47;;;24.45;34.62
81608;BME280;71022;48.122;11.576;2023-07-20T13:22:38;95356.19;;;24.40;35.59